createdAt,value
2024-01-06T00:05:00.736Z,20.70
2024-01-06T00:10:04.906Z,19.90
2024-01-06T00:15:07.722Z,24.10
2024-01-06T00:20:10.252Z,18.80
2024-01-06T00:25:12.967Z,22.10
2024-01-06T00:30:15.124Z,21.50
2024-01-06T00:35:17.034Z,22.90
2024-01-06T00:40:20.208Z,22.60
2024-01-06T00:45:23.828Z,20.50
2024-01-06T00:50:25.901Z,20.50
2024-01-06T00:55:28.067Z,24.00
2024-01-06T01:00:29.996Z,21.70
2024-01-06T01:05:31.973Z,24.80
2024-01-06T01:10:34.067Z,24.60
2024-01-06T01:15:36.208Z,16.90
2024-01-06T01:20:38.100Z,23.00
2024-01-06T01:25:40.205Z,23.30
2024-01-06T01:30:42.236Z,23.30
2024-01-06T01:35:44.175Z,23.60
2024-01-06T01:40:46.176Z,25.60
2024-01-06T01:45:55.410Z,22.00
2024-01-06T01:50:57.824Z,25.10
2024-01-06T01:56:00.536Z,18.80
2024-01-06T02:01:03.146Z,23.30
2024-01-06T02:06:05.303Z,23.90
2024-01-06T02:11:07.411Z,24.70
2024-01-06T02:16:09.234Z,22.50
2024-01-06T02:21:11.918Z,22.80
2024-01-06T02:26:15.995Z,21.90
2024-01-06T02:31:18.079Z,24.30
2024-01-06T02:36:20.194Z,25.20
2024-01-06T02:41:22.191Z,24.80
2024-01-06T02:46:24.180Z,25.90
2024-01-06T02:51:26.311Z,25.60
2024-01-06T02:56:28.391Z,27.20
2024-01-06T03:01:30.287Z,27.90
2024-01-06T03:06:32.420Z,28.20
2024-01-06T03:11:34.413Z,29.50
2024-01-06T03:16:36.518Z,28.90
2024-01-06T03:21:38.456Z,30.20
2024-01-06T03:26:40.604Z,19.60
2024-01-06T03:31:47.002Z,25.60
2024-01-06T03:36:49.110Z,24.40
2024-01-06T03:41:51.378Z,27.30
2024-01-06T03:46:53.484Z,23.80
2024-01-06T03:51:55.572Z,21.60
2024-01-06T03:56:57.747Z,25.60
2024-01-06T04:01:59.852Z,26.60
2024-01-06T04:07:02.685Z,27.70
2024-01-06T04:12:04.741Z,27.40
2024-01-06T04:17:06.663Z,27.00
2024-01-06T04:22:08.667Z,24.20
2024-01-06T04:27:11.274Z,24.50
2024-01-06T04:32:13.328Z,31.80
2024-01-06T04:37:16.065Z,34.50
2024-01-06T04:42:18.108Z,30.10
2024-01-06T04:47:20.494Z,31.70
2024-01-06T04:52:22.454Z,32.40
2024-01-06T04:57:24.686Z,33.40
2024-01-06T05:02:27.525Z,32.20
2024-01-06T05:07:29.391Z,25.90
2024-01-06T05:12:31.428Z,37.70
2024-01-06T05:17:33.552Z,32.50
2024-01-06T05:22:35.733Z,29.60
2024-01-06T05:27:37.780Z,30.90
2024-01-06T05:32:39.884Z,23.80
2024-01-06T05:37:41.909Z,29.00
2024-01-06T05:42:43.973Z,29.70
2024-01-06T05:47:46.097Z,27.40
2024-01-06T05:52:49.741Z,27.50
2024-01-06T05:57:51.841Z,31.10
2024-01-06T06:02:54.057Z,30.20
2024-01-06T06:07:56.088Z,26.90
2024-01-06T06:12:58.211Z,32.10
2024-01-06T06:18:02.901Z,24.20
2024-01-06T06:23:04.951Z,24.60
2024-01-06T06:28:07.698Z,26.10
2024-01-06T06:33:09.962Z,31.00
2024-01-06T06:43:16.358Z,32.10
2024-01-06T06:48:19.693Z,26.00
2024-01-06T06:53:22.101Z,31.50
2024-01-06T06:58:23.957Z,24.10
2024-01-06T07:03:28.076Z,32.90
2024-01-06T07:08:30.099Z,20.30
2024-01-06T07:13:32.162Z,22.60
2024-01-06T07:18:34.411Z,26.20
2024-01-06T07:23:36.556Z,32.70
2024-01-06T07:28:38.783Z,28.30
2024-01-06T07:33:41.257Z,33.40
2024-01-06T07:38:43.669Z,28.60
2024-01-06T07:43:45.624Z,23.60
2024-01-06T07:48:47.615Z,36.40
2024-01-06T07:53:49.702Z,34.00
2024-01-06T07:58:51.682Z,51.30
2024-01-06T08:03:53.655Z,27.20
2024-01-06T08:08:56.207Z,29.60
2024-01-06T08:13:58.282Z,37.70
2024-01-06T08:19:01.158Z,35.70
2024-01-06T08:24:03.621Z,32.80
2024-01-06T08:34:09.372Z,33.70
2024-01-06T08:39:18.315Z,33.50
2024-01-06T08:44:20.206Z,31.40
2024-01-06T08:49:22.176Z,33.50
2024-01-06T08:54:24.279Z,35.50
2024-01-06T08:59:26.391Z,38.90
2024-01-06T09:04:28.579Z,35.70
2024-01-06T09:09:31.528Z,35.70
2024-01-06T09:14:33.688Z,38.00
2024-01-06T09:19:36.166Z,38.10
2024-01-06T09:29:39.944Z,33.30
2024-01-06T09:34:42.171Z,37.30
2024-01-06T09:39:44.457Z,40.00
2024-01-06T09:44:46.440Z,38.20
2024-01-06T09:49:50.657Z,33.20
2024-01-06T09:54:55.099Z,36.90
2024-01-06T09:59:58.376Z,39.10
2024-01-06T10:05:00.506Z,39.80
2024-01-06T10:10:02.814Z,36.80
2024-01-06T10:20:12.204Z,43.70
2024-01-06T10:25:15.008Z,37.50
2024-01-06T10:30:19.550Z,34.70
2024-01-06T10:35:21.737Z,34.70
2024-01-06T10:40:23.822Z,38.90
2024-01-06T10:45:26.505Z,39.60
2024-01-06T10:50:29.990Z,36.40
2024-01-06T10:55:33.046Z,38.90
2024-01-06T11:00:35.044Z,41.00
2024-01-06T11:05:38.254Z,42.40
2024-01-06T11:10:41.564Z,36.60
2024-01-06T11:15:45.656Z,34.00
2024-01-06T11:21:13.940Z,39.90
2024-01-06T11:26:16.344Z,38.30
2024-01-06T11:31:19.883Z,41.00
2024-01-06T11:36:21.968Z,36.40
2024-01-06T11:41:48.733Z,41.50
2024-01-06T11:51:54.184Z,41.30
2024-01-06T11:56:57.312Z,34.70
2024-01-06T12:01:59.606Z,39.30
2024-01-06T12:12:16.269Z,40.20
2024-01-06T12:17:18.377Z,33.30
2024-01-06T12:22:20.533Z,31.40
2024-01-06T12:27:23.042Z,31.80
2024-01-06T12:32:26.625Z,37.30
2024-01-06T12:37:29.002Z,37.80
2024-01-06T12:42:31.112Z,39.70
2024-01-06T12:47:34.129Z,37.40
2024-01-06T12:52:36.427Z,36.40
2024-01-06T13:02:40.572Z,40.50
2024-01-06T13:07:42.582Z,38.50
2024-01-06T13:12:44.790Z,31.60
2024-01-06T13:17:47.890Z,39.40
2024-01-06T13:22:49.980Z,37.10
2024-01-06T13:27:53.120Z,30.80
2024-01-06T13:32:55.917Z,29.70
2024-01-06T13:37:58.279Z,28.60
2024-01-06T13:43:00.373Z,24.70
2024-01-06T13:48:04.855Z,25.50
2024-01-06T13:53:08.847Z,28.40
2024-01-06T13:58:10.833Z,21.20
2024-01-06T14:03:13.305Z,26.80
2024-01-06T14:13:18.063Z,24.60
2024-01-06T14:18:20.199Z,24.50
2024-01-06T14:23:22.754Z,20.90
2024-01-06T14:28:25.009Z,24.20
2024-01-06T14:33:28.663Z,22.80
2024-01-06T14:38:30.658Z,24.40
2024-01-06T14:43:32.911Z,21.50
2024-01-06T14:48:35.271Z,19.10
2024-01-06T14:53:37.625Z,21.30
2024-01-06T14:58:39.571Z,21.90
2024-01-06T15:03:41.747Z,19.70
2024-01-06T15:08:43.981Z,20.70
2024-01-06T15:13:46.809Z,20.30
2024-01-06T15:18:48.856Z,22.70
2024-01-06T15:23:50.968Z,24.10
2024-01-06T15:28:53.009Z,23.40
2024-01-06T15:33:56.787Z,20.70
2024-01-06T15:38:58.809Z,21.50
2024-01-06T15:44:00.646Z,29.40
2024-01-06T15:49:04.175Z,25.30
2024-01-06T15:54:06.243Z,22.20
2024-01-06T15:59:08.935Z,24.60
2024-01-06T16:04:11.179Z,19.70
2024-01-06T16:09:13.501Z,20.50
2024-01-06T16:14:15.518Z,21.10
2024-01-06T16:19:17.518Z,19.10
2024-01-06T16:24:20.020Z,16.80
2024-01-06T16:29:22.340Z,17.90
2024-01-06T16:34:24.425Z,21.20
2024-01-06T16:39:28.689Z,20.90
2024-01-06T16:44:32.589Z,19.90
2024-01-06T16:49:36.264Z,18.80
2024-01-06T16:54:38.909Z,18.50
2024-01-06T16:59:43.172Z,15.40
2024-01-06T17:04:45.310Z,19.40
2024-01-06T17:09:47.796Z,17.10
2024-01-06T17:14:50.176Z,19.50
2024-01-06T17:19:55.639Z,21.90
2024-01-06T17:24:58.238Z,17.00
2024-01-06T17:30:00.420Z,19.70
2024-01-06T17:35:04.380Z,16.70
2024-01-06T17:40:08.216Z,14.00
2024-01-06T17:45:11.943Z,13.90
2024-01-06T17:50:14.229Z,12.90
2024-01-06T17:55:17.350Z,12.70
2024-01-06T18:05:24.010Z,14.10
2024-01-06T18:10:26.162Z,14.80
2024-01-06T18:15:31.637Z,15.10
2024-01-06T18:20:35.632Z,10.80
2024-01-06T18:25:37.903Z,14.20
2024-01-06T18:30:39.960Z,16.60
2024-01-06T18:35:42.040Z,14.20
2024-01-06T18:40:44.107Z,17.40
2024-01-06T18:45:46.996Z,18.70
2024-01-06T18:50:49.415Z,15.80
2024-01-06T18:55:51.845Z,18.30
2024-01-06T19:00:55.708Z,13.20
2024-01-06T19:05:58.178Z,20.30
2024-01-06T19:11:01.707Z,19.70
2024-01-06T19:16:03.994Z,19.30
2024-01-06T19:21:11.381Z,17.60
2024-01-06T19:26:13.876Z,15.20
2024-01-06T19:31:17.797Z,12.90
2024-01-06T19:36:19.967Z,14.50
2024-01-06T19:41:22.291Z,11.90
2024-01-06T19:46:25.035Z,13.40
2024-01-06T19:51:32.654Z,10.30
2024-01-06T19:56:35.108Z,11.30
2024-01-06T20:01:37.631Z,15.30
2024-01-06T20:06:39.937Z,13.80
2024-01-06T20:11:42.713Z,10.40
2024-01-06T20:16:46.392Z,10.70
2024-01-06T20:21:49.040Z,14.60
2024-01-06T20:26:53.544Z,10.90
2024-01-06T20:31:58.125Z,12.00
2024-01-06T20:37:00.657Z,15.40
2024-01-06T20:42:07.325Z,12.40
2024-01-06T20:47:10.031Z,14.60
2024-01-06T20:52:12.127Z,11.00
2024-01-06T20:57:14.886Z,11.40
2024-01-06T21:02:18.871Z,11.80
2024-01-06T21:07:21.152Z,12.50
2024-01-06T21:12:24.003Z,12.80
2024-01-06T21:17:27.165Z,10.80
2024-01-06T21:22:30.395Z,10.50
2024-01-06T21:32:39.188Z,9.40
2024-01-06T21:37:41.833Z,13.70
2024-01-06T21:42:44.805Z,12.00
2024-01-06T21:47:47.112Z,10.90
2024-01-06T21:52:49.486Z,11.50
2024-01-06T21:57:51.360Z,11.20
2024-01-06T22:02:53.659Z,9.40
2024-01-06T22:08:00.697Z,11.90
2024-01-06T22:13:03.429Z,10.80
2024-01-06T22:18:06.163Z,12.90
2024-01-06T22:23:08.379Z,12.00
2024-01-06T22:28:11.463Z,14.80
2024-01-06T22:38:18.954Z,13.80
2024-01-06T22:43:25.403Z,15.20
2024-01-06T22:48:27.526Z,14.00
2024-01-06T22:53:29.710Z,11.60
2024-01-06T22:58:34.247Z,11.80
2024-01-06T23:03:36.520Z,15.30
2024-01-06T23:08:38.676Z,12.00
2024-01-06T23:13:41.561Z,12.60
2024-01-06T23:18:43.755Z,11.60
2024-01-06T23:23:46.955Z,12.70
2024-01-06T23:28:48.873Z,10.00
2024-01-06T23:33:50.922Z,11.60
2024-01-06T23:38:53.406Z,12.60
2024-01-06T23:43:55.434Z,11.70
2024-01-06T23:48:57.849Z,14.20
2024-01-06T23:53:59.902Z,12.10
2024-01-06T23:59:02.728Z,11.90
